createdAt,value
2022-08-26T00:01:46.569Z,4.50
2022-08-26T00:04:09.756Z,4.10
2022-08-26T00:06:46.025Z,4.40
2022-08-26T00:08:52.809Z,4.47
2022-08-26T00:11:04.559Z,4.28
2022-08-26T00:13:25.903Z,4.57
2022-08-26T00:15:40.364Z,4.97
2022-08-26T00:17:48.146Z,4.68
2022-08-26T00:19:54.163Z,4.35
2022-08-26T00:22:02.898Z,4.20
2022-08-26T00:24:10.672Z,4.50
2022-08-26T00:26:15.331Z,4.78
2022-08-26T00:28:24.891Z,5.05
2022-08-26T00:30:43.868Z,4.82
2022-08-26T00:32:53.837Z,4.65
2022-08-26T00:35:01.423Z,4.68
2022-08-26T00:37:09.421Z,4.53
2022-08-26T00:39:19.485Z,4.88
2022-08-26T00:42:07.043Z,4.43
2022-08-26T00:44:22.838Z,5.07
2022-08-26T00:46:32.730Z,4.80
2022-08-26T00:48:39.169Z,4.50
2022-08-26T00:50:49.456Z,4.65
2022-08-26T00:53:01.825Z,4.63
2022-08-26T00:55:25.257Z,4.88
2022-08-26T00:57:41.274Z,4.63
2022-08-26T00:59:46.425Z,4.88
2022-08-26T01:01:58.097Z,4.80
2022-08-26T01:04:17.079Z,4.53
2022-08-26T01:06:27.894Z,4.78
2022-08-26T01:08:32.752Z,4.85
2022-08-26T01:10:37.976Z,4.75
2022-08-26T01:12:51.608Z,5.03
2022-08-26T01:17:42.535Z,5.40
2022-08-26T01:19:54.668Z,5.25
2022-08-26T01:22:17.584Z,5.10
2022-08-26T01:24:27.723Z,4.90
2022-08-26T01:26:47.262Z,4.75
2022-08-26T01:29:04.592Z,4.60
2022-08-26T01:31:22.494Z,4.90
2022-08-26T01:33:42.026Z,4.90
2022-08-26T01:35:47.948Z,5.05
2022-08-26T01:37:55.759Z,4.65
2022-08-26T01:40:05.405Z,5.10
2022-08-26T01:42:18.888Z,5.10
2022-08-26T01:44:33.316Z,4.80
2022-08-26T01:46:40.977Z,5.10
2022-08-26T01:48:49.863Z,5.15
2022-08-26T01:51:08.300Z,4.80
2022-08-26T01:53:25.564Z,5.10
2022-08-26T01:55:36.215Z,5.10
2022-08-26T01:57:48.619Z,5.15
2022-08-26T02:00:04.419Z,5.35
2022-08-26T02:02:12.260Z,5.20
2022-08-26T02:04:23.112Z,5.00
2022-08-26T02:06:32.904Z,4.90
2022-08-26T02:08:51.810Z,5.47
2022-08-26T02:11:03.031Z,5.28
2022-08-26T02:13:21.444Z,5.10
2022-08-26T02:15:50.337Z,5.03
2022-08-26T02:18:01.457Z,5.30
2022-08-26T02:20:22.301Z,5.25
2022-08-26T02:22:26.490Z,5.25
2022-08-26T02:25:03.627Z,5.28
2022-08-26T02:27:13.659Z,5.75
2022-08-26T02:29:42.592Z,5.20
2022-08-26T02:31:57.380Z,5.38
2022-08-26T02:34:21.841Z,5.03
2022-08-26T02:36:29.637Z,5.13
2022-08-26T02:38:37.250Z,4.97
2022-08-26T02:40:52.291Z,5.57
2022-08-26T02:48:38.450Z,5.90
2022-08-26T02:51:01.994Z,5.80
2022-08-26T02:53:11.208Z,5.70
2022-08-26T02:55:24.805Z,5.85
2022-08-26T02:58:09.216Z,5.75
2022-08-26T03:00:18.042Z,5.72
2022-08-26T03:02:22.385Z,5.07
2022-08-26T03:04:27.127Z,5.10
2022-08-26T03:09:05.596Z,5.90
2022-08-26T03:11:33.173Z,5.47
2022-08-26T03:14:08.028Z,5.75
2022-08-26T03:16:32.248Z,5.70
2022-08-26T03:19:06.529Z,6.20
2022-08-26T03:21:25.142Z,5.60
2022-08-26T03:23:42.156Z,6.22
2022-08-26T03:25:55.329Z,5.70
2022-08-26T03:28:34.197Z,6.28
2022-08-26T03:31:05.143Z,5.82
2022-08-26T03:33:15.986Z,5.72
2022-08-26T03:35:25.353Z,6.03
2022-08-26T03:37:38.092Z,5.80
2022-08-26T03:39:52.116Z,5.63
2022-08-26T03:42:00.339Z,5.85
2022-08-26T03:44:15.435Z,6.20
2022-08-26T03:46:30.669Z,5.68
2022-08-26T03:48:41.733Z,5.78
2022-08-26T03:50:44.710Z,6.00
2022-08-26T03:52:48.112Z,5.60
2022-08-26T03:54:51.329Z,5.72
2022-08-26T03:57:01.429Z,5.70
2022-08-26T03:59:07.622Z,5.60
2022-08-26T04:01:11.010Z,6.00
2022-08-26T04:03:18.542Z,5.78
2022-08-26T04:05:23.957Z,5.65
2022-08-26T04:07:26.843Z,6.10
2022-08-26T04:09:29.791Z,5.72
2022-08-26T04:11:35.706Z,5.72
2022-08-26T04:13:41.569Z,5.97
2022-08-26T04:15:44.808Z,5.70
2022-08-26T04:17:47.837Z,6.00
2022-08-26T04:19:51.674Z,5.72
2022-08-26T04:21:55.915Z,6.13
2022-08-26T04:23:59.696Z,5.57
2022-08-26T04:26:06.779Z,6.28
2022-08-26T04:28:10.651Z,6.00
2022-08-26T04:30:14.096Z,5.95
2022-08-26T04:32:17.119Z,6.10
2022-08-26T04:34:20.193Z,6.82
2022-08-26T04:36:23.829Z,5.90
2022-08-26T04:38:28.199Z,6.07
2022-08-26T04:40:31.227Z,6.18
2022-08-26T04:42:34.512Z,6.50
2022-08-26T04:44:38.879Z,6.60
2022-08-26T04:46:43.916Z,5.97
2022-08-26T04:48:47.830Z,6.30
2022-08-26T04:50:51.442Z,6.22
2022-08-26T04:52:54.991Z,6.00
2022-08-26T04:54:59.292Z,6.50
2022-08-26T04:57:02.829Z,6.78
2022-08-26T04:59:08.079Z,6.20
2022-08-26T05:01:20.501Z,6.00
2022-08-26T05:03:24.632Z,5.82
2022-08-26T05:05:27.738Z,6.53
2022-08-26T05:07:31.096Z,6.13
2022-08-26T05:09:34.850Z,5.80
2022-08-26T05:11:39.210Z,5.97
2022-08-26T05:13:42.997Z,6.18
2022-08-26T05:15:46.926Z,6.47
2022-08-26T05:17:51.624Z,5.97
2022-08-26T05:19:55.360Z,6.35
2022-08-26T05:21:58.363Z,5.85
2022-08-26T05:24:01.989Z,6.32
2022-08-26T05:26:09.448Z,6.90
2022-08-26T05:28:15.696Z,6.15
2022-08-26T05:30:18.796Z,6.53
2022-08-26T05:32:21.641Z,6.15
2022-08-26T05:34:30.146Z,6.97
2022-08-26T05:36:35.345Z,6.55
2022-08-26T05:38:38.236Z,6.28
2022-08-26T05:40:44.323Z,6.63
2022-08-26T05:42:48.382Z,6.13
2022-08-26T05:44:56.108Z,6.63
2022-08-26T05:46:59.169Z,6.20
2022-08-26T05:49:05.677Z,6.68
2022-08-26T05:51:11.057Z,6.35
2022-08-26T05:53:17.457Z,6.15
2022-08-26T05:55:21.287Z,6.82
2022-08-26T05:57:24.109Z,6.97
2022-08-26T05:59:26.975Z,6.82
2022-08-26T06:01:31.846Z,6.30
2022-08-26T06:03:40.600Z,6.53
2022-08-26T06:05:43.494Z,5.97
2022-08-26T06:08:05.161Z,6.20
2022-08-26T06:10:32.584Z,6.47
2022-08-26T06:12:35.784Z,6.68
2022-08-26T06:14:38.887Z,6.38
2022-08-26T06:16:45.072Z,6.22
2022-08-26T06:18:49.135Z,6.80
2022-08-26T06:20:57.294Z,6.53
2022-08-26T06:23:18.731Z,6.32
2022-08-26T06:25:40.388Z,6.68
2022-08-26T06:27:43.205Z,7.18
2022-08-26T06:29:47.053Z,7.05
2022-08-26T06:31:51.333Z,6.85
2022-08-26T06:33:55.032Z,6.35
2022-08-26T06:35:58.714Z,6.40
2022-08-26T06:38:02.287Z,6.35
2022-08-26T06:40:07.331Z,5.95
2022-08-26T06:42:11.808Z,6.20
2022-08-26T06:44:16.318Z,6.22
2022-08-26T06:46:22.541Z,6.50
2022-08-26T06:48:26.878Z,6.22
2022-08-26T06:50:29.828Z,6.22
2022-08-26T06:52:33.077Z,5.97
2022-08-26T06:54:41.475Z,6.88
2022-08-26T06:56:46.117Z,6.18
2022-08-26T06:58:51.032Z,5.93
2022-08-26T07:00:53.945Z,6.30
2022-08-26T07:02:56.984Z,6.90
2022-08-26T07:05:01.473Z,6.30
2022-08-26T07:07:04.448Z,6.15
2022-08-26T07:09:10.019Z,6.32
2022-08-26T07:11:13.965Z,6.55
2022-08-26T07:13:16.820Z,6.30
2022-08-26T07:15:35.709Z,7.05
2022-08-26T07:17:38.902Z,6.40
2022-08-26T07:19:43.360Z,6.80
2022-08-26T07:21:47.556Z,5.93
2022-08-26T07:23:55.426Z,6.90
2022-08-26T07:26:00.864Z,6.32
2022-08-26T07:28:04.344Z,6.88
2022-08-26T07:30:08.424Z,6.00
2022-08-26T07:32:13.074Z,6.20
2022-08-26T07:34:17.091Z,6.80
2022-08-26T07:36:23.051Z,6.70
2022-08-26T07:38:27.422Z,6.68
2022-08-26T07:40:30.434Z,6.05
2022-08-26T07:42:33.704Z,6.25
2022-08-26T07:44:39.561Z,6.38
2022-08-26T07:46:44.105Z,6.72
2022-08-26T07:48:48.363Z,7.95
2022-08-26T07:50:53.618Z,7.05
2022-08-26T07:52:56.672Z,6.63
2022-08-26T07:55:03.069Z,7.15
2022-08-26T07:57:08.377Z,7.00
2022-08-26T07:59:13.533Z,7.53
2022-08-26T08:01:17.330Z,7.80
2022-08-26T08:03:20.486Z,6.75
2022-08-26T08:05:33.443Z,7.63
2022-08-26T08:07:44.397Z,8.00
2022-08-26T08:09:49.371Z,7.10
2022-08-26T08:11:54.069Z,7.20
2022-08-26T08:13:57.007Z,7.05
2022-08-26T08:16:02.401Z,7.10
2022-08-26T08:20:29.800Z,7.20
2022-08-26T08:22:32.668Z,7.57
2022-08-26T08:24:36.312Z,7.32
2022-08-26T08:26:39.449Z,7.50
2022-08-26T08:28:43.712Z,7.60
2022-08-26T08:30:47.326Z,7.03
2022-08-26T08:32:50.235Z,6.72
2022-08-26T08:34:53.181Z,7.00
2022-08-26T08:36:57.096Z,6.82
2022-08-26T08:39:00.545Z,6.63
2022-08-26T08:41:05.633Z,7.20
2022-08-26T08:43:12.589Z,7.95
2022-08-26T08:45:25.716Z,7.22
2022-08-26T08:47:35.035Z,6.47
2022-08-26T08:49:38.412Z,7.13
2022-08-26T08:51:48.092Z,6.47
2022-08-26T08:53:55.045Z,6.55
2022-08-26T08:56:12.431Z,7.05
2022-08-26T08:58:20.501Z,7.40
2022-08-26T09:00:30.236Z,7.10
2022-08-26T09:02:39.109Z,7.18
2022-08-26T09:05:04.503Z,6.70
2022-08-26T09:07:12.956Z,6.75
2022-08-26T09:09:22.146Z,6.93
2022-08-26T09:11:25.013Z,6.97
2022-08-26T09:13:29.029Z,7.30
2022-08-26T09:15:45.919Z,7.03
2022-08-26T09:17:59.863Z,6.80
2022-08-26T09:20:10.614Z,6.65
2022-08-26T09:22:29.136Z,6.60
2022-08-26T09:24:38.425Z,6.65
2022-08-26T09:26:48.415Z,6.30
2022-08-26T09:28:59.250Z,6.47
2022-08-26T09:31:12.082Z,6.88
2022-08-26T09:33:19.241Z,6.28
2022-08-26T09:35:27.419Z,6.82
2022-08-26T09:37:43.346Z,6.85
2022-08-26T09:39:46.574Z,6.50
2022-08-26T09:42:04.003Z,6.75
2022-08-26T09:44:18.308Z,6.85
2022-08-26T09:46:28.798Z,6.70
2022-08-26T09:48:36.639Z,7.68
2022-08-26T09:50:50.218Z,7.22
2022-08-26T09:53:09.883Z,8.50
2022-08-26T09:55:23.971Z,6.57
2022-08-26T09:57:29.009Z,6.20
2022-08-26T09:59:31.983Z,6.38
2022-08-26T10:01:38.342Z,6.40
2022-08-26T10:03:41.960Z,6.32
2022-08-26T10:05:55.216Z,6.68
2022-08-26T10:08:00.276Z,5.93
2022-08-26T10:10:04.558Z,6.38
2022-08-26T10:12:11.898Z,6.05
2022-08-26T10:14:20.261Z,6.07
2022-08-26T10:16:28.570Z,6.25
2022-08-26T10:18:37.892Z,6.40
2022-08-26T10:20:52.256Z,6.15
2022-08-26T10:23:00.222Z,5.65
2022-08-26T10:25:08.846Z,6.60
2022-08-26T10:27:23.744Z,6.03
2022-08-26T10:29:34.255Z,6.40
2022-08-26T10:31:42.374Z,6.53
2022-08-26T10:33:47.249Z,6.40
2022-08-26T10:35:53.021Z,6.53
2022-08-26T10:37:59.475Z,6.00
2022-08-26T10:40:08.440Z,6.28
2022-08-26T10:42:20.905Z,6.15
2022-08-26T10:44:26.108Z,6.35
2022-08-26T10:46:40.958Z,6.72
2022-08-26T10:48:49.353Z,6.03
2022-08-26T10:50:57.686Z,6.07
2022-08-26T10:53:05.928Z,6.43
2022-08-26T10:55:22.041Z,6.05
2022-08-26T10:57:35.019Z,6.00
2022-08-26T10:59:49.821Z,6.38
2022-08-26T11:01:59.435Z,6.13
2022-08-26T11:04:28.472Z,6.15
2022-08-26T11:06:33.007Z,5.70
2022-08-26T11:08:47.563Z,6.30
2022-08-26T11:11:00.381Z,5.95
2022-08-26T11:13:04.694Z,5.80
2022-08-26T11:15:09.663Z,4.60
2022-08-26T11:17:12.647Z,4.90
2022-08-26T11:20:00.831Z,5.15
2022-08-26T11:22:09.340Z,4.88
2022-08-26T11:24:46.628Z,4.85
2022-08-26T11:26:55.954Z,4.70
2022-08-26T11:28:59.583Z,5.10
2022-08-26T11:31:09.879Z,4.88
2022-08-26T11:33:59.844Z,4.55
2022-08-26T11:36:11.497Z,4.13
2022-08-26T11:38:22.836Z,4.63
2022-08-26T11:40:28.567Z,4.72
2022-08-26T11:42:37.349Z,5.05
2022-08-26T11:44:49.117Z,5.13
2022-08-26T11:47:00.769Z,4.18
2022-08-26T11:49:06.524Z,5.03
2022-08-26T11:51:12.220Z,4.55
2022-08-26T11:53:19.365Z,5.43
2022-08-26T11:55:23.417Z,5.03
2022-08-26T11:57:28.703Z,4.85
2022-08-26T11:59:38.569Z,4.75
2022-08-26T12:01:45.841Z,4.50
2022-08-26T12:03:52.088Z,4.82
2022-08-26T12:05:56.028Z,4.70
2022-08-26T12:08:05.090Z,4.68
2022-08-26T12:10:23.753Z,5.07
2022-08-26T12:12:36.055Z,4.95
2022-08-26T12:14:39.653Z,4.60
2022-08-26T12:16:43.423Z,4.22
2022-08-26T12:18:46.436Z,4.65
2022-08-26T12:20:53.815Z,4.50
2022-08-26T12:22:58.752Z,4.82
2022-08-26T12:25:05.368Z,4.65
2022-08-26T12:27:17.984Z,4.22
2022-08-26T12:29:27.562Z,4.13
2022-08-26T12:31:33.654Z,4.45
2022-08-26T12:33:37.364Z,4.40
2022-08-26T12:35:41.269Z,4.60
2022-08-26T12:37:46.983Z,4.38
2022-08-26T12:39:49.887Z,4.43
2022-08-26T12:41:54.781Z,4.40
2022-08-26T12:43:59.020Z,4.50
2022-08-26T12:46:02.065Z,4.25
2022-08-26T12:48:10.704Z,4.43
2022-08-26T12:50:19.775Z,4.43
2022-08-26T12:52:30.739Z,5.07
2022-08-26T12:54:56.141Z,5.03
2022-08-26T12:57:10.704Z,5.00
2022-08-26T12:59:25.454Z,4.88
2022-08-26T13:01:28.695Z,5.55
2022-08-26T13:03:44.754Z,5.50
2022-08-26T13:05:47.984Z,5.95
2022-08-26T13:08:13.454Z,5.60
2022-08-26T13:10:36.107Z,5.00
2022-08-26T13:12:40.913Z,4.88
2022-08-26T13:14:45.018Z,5.15
2022-08-26T13:16:49.073Z,5.43
2022-08-26T13:18:54.539Z,4.78
2022-08-26T13:20:57.916Z,4.40
2022-08-26T13:23:01.187Z,4.57
2022-08-26T13:25:04.033Z,4.95
2022-08-26T13:27:08.663Z,5.05
2022-08-26T13:29:12.410Z,5.43
2022-08-26T13:31:17.339Z,6.05
2022-08-26T13:33:22.607Z,6.50
2022-08-26T13:35:25.467Z,6.50
2022-08-26T13:37:35.192Z,7.35
2022-08-26T13:39:39.320Z,7.97
2022-08-26T13:41:43.244Z,7.93
2022-08-26T13:43:46.400Z,8.90
2022-08-26T13:45:49.370Z,9.10
2022-08-26T13:47:53.685Z,9.23
2022-08-26T13:49:57.096Z,9.30
2022-08-26T13:52:00.158Z,9.68
2022-08-26T13:54:03.121Z,9.63
2022-08-26T13:56:10.886Z,9.60
2022-08-26T13:58:14.528Z,11.38
2022-08-26T14:00:18.425Z,11.07
2022-08-26T14:02:22.317Z,11.40
2022-08-26T14:04:27.275Z,11.32
2022-08-26T14:06:30.769Z,11.52
2022-08-26T14:08:33.657Z,11.93
2022-08-26T14:10:37.338Z,12.63
2022-08-26T14:12:40.812Z,12.80
2022-08-26T14:14:43.716Z,13.00
2022-08-26T14:16:58.862Z,13.75
2022-08-26T14:19:04.821Z,14.38
2022-08-26T14:21:10.203Z,15.05
2022-08-26T14:23:14.402Z,15.50
2022-08-26T14:25:18.451Z,14.38
2022-08-26T14:27:21.297Z,13.95
2022-08-26T14:29:24.577Z,15.48
2022-08-26T14:31:29.082Z,15.48
2022-08-26T14:33:34.905Z,18.17
2022-08-26T14:35:37.951Z,17.58
2022-08-26T14:37:42.522Z,18.02
2022-08-26T14:39:45.645Z,18.98
2022-08-26T14:41:53.975Z,18.52
2022-08-26T14:44:01.134Z,18.52
2022-08-26T14:46:05.167Z,19.48
2022-08-26T14:48:08.567Z,20.30
2022-08-26T14:50:11.644Z,21.30
2022-08-26T14:52:16.244Z,21.00
2022-08-26T14:54:20.800Z,19.20
2022-08-26T14:56:23.932Z,21.30
2022-08-26T14:58:28.561Z,21.73
2022-08-26T15:00:38.102Z,20.42
2022-08-26T15:02:41.243Z,19.65
2022-08-26T15:04:44.215Z,21.00
2022-08-26T15:06:47.289Z,17.45
2022-08-26T15:08:50.169Z,16.60
2022-08-26T15:10:54.341Z,15.45
2022-08-26T15:12:57.180Z,14.80
2022-08-26T15:15:00.246Z,15.50
2022-08-26T15:17:03.248Z,15.70
2022-08-26T15:19:06.911Z,16.02
2022-08-26T15:21:09.765Z,16.10
2022-08-26T15:23:14.618Z,16.75
2022-08-26T15:25:18.107Z,17.17
2022-08-26T15:27:22.284Z,16.83
2022-08-26T15:29:25.199Z,16.88
2022-08-26T15:31:31.175Z,16.52
2022-08-26T15:33:34.574Z,17.38
2022-08-26T15:35:38.465Z,17.67
2022-08-26T15:37:43.353Z,17.75
2022-08-26T15:39:46.208Z,18.38
2022-08-26T15:41:49.155Z,18.23
2022-08-26T15:43:53.348Z,18.70
2022-08-26T15:45:56.585Z,18.65
2022-08-26T15:48:02.933Z,18.02
2022-08-26T15:50:07.455Z,18.17
2022-08-26T15:52:10.347Z,18.60
2022-08-26T15:54:13.226Z,18.40
2022-08-26T15:56:16.185Z,17.98
2022-08-26T15:58:19.702Z,18.77
2022-08-26T16:00:27.083Z,18.13
2022-08-26T16:02:32.292Z,17.25
2022-08-26T16:04:35.499Z,16.77
2022-08-26T16:06:40.584Z,17.50
2022-08-26T16:08:43.630Z,15.55
2022-08-26T16:10:50.542Z,14.02
2022-08-26T16:12:53.735Z,13.82
2022-08-26T16:14:56.548Z,13.45
2022-08-26T16:17:00.689Z,13.73
2022-08-26T16:19:07.402Z,14.15
2022-08-26T16:21:15.232Z,13.77
2022-08-26T16:23:18.439Z,15.00
2022-08-26T16:25:21.607Z,14.95
2022-08-26T16:27:24.552Z,13.85
2022-08-26T16:29:28.121Z,12.65
2022-08-26T16:31:31.255Z,11.35
2022-08-26T16:33:35.512Z,10.63
2022-08-26T16:35:38.938Z,9.65
2022-08-26T16:37:42.108Z,7.97
2022-08-26T16:39:45.322Z,8.02
2022-08-26T16:41:48.166Z,8.13
2022-08-26T16:43:53.158Z,7.45
2022-08-26T16:45:56.200Z,7.07
2022-08-26T16:47:59.501Z,7.95
2022-08-26T16:50:04.301Z,8.00
2022-08-26T16:52:08.112Z,8.07
2022-08-26T16:54:10.982Z,8.82
2022-08-26T16:56:14.947Z,8.55
2022-08-26T16:58:18.655Z,9.02
2022-08-26T17:00:27.544Z,9.52
2022-08-26T17:02:30.421Z,9.63
2022-08-26T17:04:33.427Z,10.00
2022-08-26T17:06:38.232Z,12.60
2022-08-26T17:08:41.941Z,12.27
2022-08-26T17:10:44.738Z,12.52
2022-08-26T17:12:47.687Z,14.23
2022-08-26T17:14:50.499Z,14.18
2022-08-26T17:16:53.505Z,15.77
2022-08-26T17:18:57.698Z,15.50
2022-08-26T17:21:02.948Z,16.98
2022-08-26T17:23:07.304Z,17.70
2022-08-26T17:25:13.340Z,20.38
2022-08-26T17:27:16.277Z,22.40
2022-08-26T17:29:19.072Z,20.25
2022-08-26T17:31:23.187Z,20.58
2022-08-26T17:33:26.912Z,21.60
2022-08-26T17:35:30.401Z,19.80
2022-08-26T17:37:34.635Z,20.52
2022-08-26T17:39:42.473Z,19.83
2022-08-26T17:41:45.739Z,20.42
2022-08-26T17:43:48.676Z,18.50
2022-08-26T17:45:51.626Z,18.73
2022-08-26T17:47:55.870Z,18.98
2022-08-26T17:49:58.909Z,20.00
2022-08-26T17:52:02.213Z,19.63
2022-08-26T17:54:05.442Z,19.65
2022-08-26T17:56:14.952Z,19.27
2022-08-26T17:58:19.759Z,18.33
2022-08-26T18:00:26.451Z,20.27
2022-08-26T18:04:32.581Z,18.77
2022-08-26T18:06:35.749Z,18.27
2022-08-26T18:08:39.388Z,18.98
2022-08-26T18:10:42.651Z,17.45
2022-08-26T18:12:47.505Z,17.80
2022-08-26T18:14:50.451Z,17.20
2022-08-26T18:16:53.919Z,17.92
2022-08-26T18:18:56.732Z,16.83
2022-08-26T18:21:01.402Z,17.58
2022-08-26T18:23:04.632Z,18.38
2022-08-26T18:25:08.958Z,17.33
2022-08-26T18:27:11.762Z,18.38
2022-08-26T18:29:26.359Z,17.15
2022-08-26T18:31:30.527Z,17.55
2022-08-26T18:33:33.548Z,17.35
2022-08-26T18:35:39.530Z,17.13
2022-08-26T18:37:44.268Z,17.15
2022-08-26T18:39:47.391Z,16.00
2022-08-26T18:41:52.236Z,16.35
2022-08-26T18:43:55.769Z,17.02
2022-08-26T18:46:08.208Z,15.68
2022-08-26T18:48:11.336Z,16.45
2022-08-26T18:50:14.388Z,16.27
2022-08-26T18:52:17.236Z,16.33
2022-08-26T18:56:24.052Z,14.90
2022-08-26T18:58:26.969Z,15.65
2022-08-26T19:00:31.448Z,17.00
2022-08-26T19:02:35.893Z,16.25
2022-08-26T19:04:39.239Z,15.27
2022-08-26T19:06:42.399Z,16.05
2022-08-26T19:08:46.079Z,15.60
2022-08-26T19:10:52.719Z,15.00
2022-08-26T19:13:06.097Z,15.55
2022-08-26T19:15:10.724Z,15.30
2022-08-26T19:17:13.667Z,15.10
2022-08-26T19:19:18.294Z,15.18
2022-08-26T19:21:22.771Z,15.20
2022-08-26T19:23:31.826Z,15.30
2022-08-26T19:25:40.341Z,15.57
2022-08-26T19:27:43.881Z,15.27
2022-08-26T19:29:46.890Z,15.27
2022-08-26T19:31:50.181Z,15.77
2022-08-26T19:33:53.227Z,15.82
2022-08-26T19:35:57.510Z,15.25
2022-08-26T19:38:00.588Z,14.77
2022-08-26T19:40:04.125Z,14.45
2022-08-26T19:42:07.390Z,14.15
2022-08-26T19:44:13.397Z,15.38
2022-08-26T19:46:20.501Z,14.57
2022-08-26T19:48:23.775Z,15.45
2022-08-26T19:50:28.516Z,14.95
2022-08-26T19:52:33.071Z,14.23
2022-08-26T19:54:36.422Z,14.25
2022-08-26T19:56:46.902Z,14.95
2022-08-26T19:58:52.623Z,15.27
2022-08-26T20:00:55.732Z,14.20
2022-08-26T20:02:59.924Z,15.55
2022-08-26T20:05:04.071Z,14.18
2022-08-26T20:07:07.368Z,14.43
2022-08-26T20:09:11.877Z,15.40
2022-08-26T20:11:17.940Z,14.95
2022-08-26T20:13:21.835Z,15.63
2022-08-26T20:15:25.039Z,14.70
2022-08-26T20:17:31.801Z,14.75
2022-08-26T20:19:52.249Z,13.70
2022-08-26T20:21:55.173Z,14.10
2022-08-26T20:24:00.530Z,14.80
2022-08-26T20:26:05.437Z,13.73
2022-08-26T20:28:09.082Z,14.73
2022-08-26T20:30:13.431Z,15.50
2022-08-26T20:32:16.779Z,13.85
2022-08-26T20:34:20.597Z,13.43
2022-08-26T20:36:25.784Z,14.15
2022-08-26T20:38:28.768Z,13.82
2022-08-26T20:40:32.319Z,14.95
2022-08-26T20:42:37.497Z,13.73
2022-08-26T20:44:43.273Z,14.57
2022-08-26T20:46:59.055Z,14.43
2022-08-26T20:49:02.051Z,14.23
2022-08-26T20:51:09.187Z,14.63
2022-08-26T20:53:12.171Z,13.57
2022-08-26T20:55:15.077Z,13.40
2022-08-26T20:57:18.155Z,13.57
2022-08-26T20:59:22.389Z,14.23
2022-08-26T21:01:28.074Z,13.77
2022-08-26T21:03:31.122Z,13.77
2022-08-26T21:05:34.416Z,14.45
2022-08-26T21:07:37.341Z,14.02
2022-08-26T21:09:40.243Z,15.68
2022-08-26T21:11:45.618Z,14.35
2022-08-26T21:14:04.472Z,14.10
2022-08-26T21:16:12.170Z,13.20
2022-08-26T21:18:15.082Z,12.43
2022-08-26T21:20:19.400Z,13.35
2022-08-26T21:22:22.728Z,11.57
2022-08-26T21:24:25.615Z,11.60
2022-08-26T21:26:28.405Z,10.98
2022-08-26T21:28:31.323Z,11.07
2022-08-26T21:30:37.528Z,10.68
2022-08-26T21:32:41.819Z,10.70
2022-08-26T21:34:44.628Z,10.35
2022-08-26T21:36:48.625Z,9.93
2022-08-26T21:38:51.437Z,10.40
2022-08-26T21:41:00.352Z,9.55
2022-08-26T21:43:03.212Z,10.18
2022-08-26T21:45:07.570Z,9.50
2022-08-26T21:47:10.431Z,9.70
2022-08-26T21:49:16.627Z,10.05
2022-08-26T21:51:22.460Z,9.60
2022-08-26T21:53:25.439Z,9.70
2022-08-26T21:55:28.461Z,9.48
2022-08-26T21:57:31.527Z,9.30
2022-08-26T21:59:34.848Z,10.05
2022-08-26T22:01:38.872Z,9.40
2022-08-26T22:03:46.601Z,9.73
2022-08-26T22:05:52.458Z,9.35
2022-08-26T22:07:55.469Z,9.13
2022-08-26T22:09:58.448Z,9.20
2022-08-26T22:12:01.730Z,8.93
2022-08-26T22:14:04.578Z,7.88
2022-08-26T22:16:08.361Z,8.68
2022-08-26T22:18:11.378Z,9.18
2022-08-26T22:20:16.496Z,9.60
2022-08-26T22:22:21.116Z,8.90
2022-08-26T22:24:27.063Z,9.55
2022-08-26T22:26:33.642Z,9.30
2022-08-26T22:28:37.075Z,8.30
2022-08-26T22:30:41.797Z,8.93
2022-08-26T22:32:45.571Z,9.18
2022-08-26T22:34:48.510Z,8.82
2022-08-26T22:36:51.735Z,9.20
2022-08-26T22:38:56.888Z,9.15
2022-08-26T22:41:00.323Z,9.48
2022-08-26T22:43:03.563Z,8.68
2022-08-26T22:45:08.132Z,8.75
2022-08-26T22:47:10.893Z,8.40
2022-08-26T22:49:16.859Z,9.02
2022-08-26T22:51:20.091Z,8.80
2022-08-26T22:53:23.342Z,9.00
2022-08-26T22:55:27.522Z,9.05
2022-08-26T22:57:30.385Z,9.13
2022-08-26T22:59:33.651Z,9.27
2022-08-26T23:01:38.247Z,8.68
2022-08-26T23:03:41.159Z,7.78
2022-08-26T23:05:45.261Z,9.00
2022-08-26T23:07:48.919Z,8.63
2022-08-26T23:09:51.792Z,9.10
2022-08-26T23:11:56.555Z,8.50
2022-08-26T23:14:00.341Z,8.70
2022-08-26T23:16:09.044Z,8.15
2022-08-26T23:18:13.135Z,9.40
2022-08-26T23:20:17.163Z,9.07
2022-08-26T23:22:20.029Z,8.85
2022-08-26T23:24:23.227Z,9.02
2022-08-26T23:26:26.375Z,8.45
2022-08-26T23:28:31.920Z,9.13
2022-08-26T23:30:35.283Z,8.35
2022-08-26T23:32:38.102Z,8.32
2022-08-26T23:34:59.454Z,8.70
2022-08-26T23:37:03.175Z,8.52
2022-08-26T23:39:09.177Z,8.63
2022-08-26T23:41:12.030Z,8.82
2022-08-26T23:43:16.347Z,8.75
2022-08-26T23:45:21.456Z,8.35
2022-08-26T23:47:25.116Z,8.38
2022-08-26T23:49:28.633Z,8.70
2022-08-26T23:51:49.443Z,8.40
2022-08-26T23:53:52.753Z,8.57
2022-08-26T23:55:55.702Z,8.55
2022-08-26T23:57:58.626Z,8.70
